sensor_id;sensor_type;location;lat;lon;timestamp;P1;durP1;ratioP1;P2;durP2;ratioP2
11807;SDS011;5961;42.640;23.380;2024-02-21T00:00:10;16.23;;;8.20;;
11807;SDS011;5961;42.640;23.380;2024-02-21T00:02:37;15.13;;;8.50;;
11807;SDS011;5961;42.640;23.380;2024-02-21T00:05:05;14.27;;;7.87;;
11807;SDS011;5961;42.640;23.380;2024-02-21T00:07:32;13.83;;;8.30;;
11807;SDS011;5961;42.640;23.380;2024-02-21T00:09:59;12.87;;;7.30;;
11807;SDS011;5961;42.640;23.380;2024-02-21T00:12:26;12.83;;;7.43;;
11807;SDS011;5961;42.640;23.380;2024-02-21T00:14:52;15.53;;;8.10;;
11807;SDS011;5961;42.640;23.380;2024-02-21T00:17:19;13.53;;;7.67;;
11807;SDS011;5961;42.640;23.380;2024-02-21T00:19:46;13.07;;;7.80;;
11807;SDS011;5961;42.640;23.380;2024-02-21T00:22:14;14.83;;;7.73;;
11807;SDS011;5961;42.640;23.380;2024-02-21T00:24:40;14.07;;;8.03;;
11807;SDS011;5961;42.640;23.380;2024-02-21T00:27:08;11.80;;;7.17;;
11807;SDS011;5961;42.640;23.380;2024-02-21T00:29:34;15.40;;;7.83;;
11807;SDS011;5961;42.640;23.380;2024-02-21T00:32:01;13.30;;;7.97;;
11807;SDS011;5961;42.640;23.380;2024-02-21T00:34:28;12.43;;;7.43;;
11807;SDS011;5961;42.640;23.380;2024-02-21T00:36:54;13.67;;;7.60;;
11807;SDS011;5961;42.640;23.380;2024-02-21T00:39:22;15.50;;;8.53;;
11807;SDS011;5961;42.640;23.380;2024-02-21T00:41:49;13.57;;;7.57;;
11807;SDS011;5961;42.640;23.380;2024-02-21T00:44:16;12.87;;;7.33;;
11807;SDS011;5961;42.640;23.380;2024-02-21T00:46:42;11.47;;;7.30;;
11807;SDS011;5961;42.640;23.380;2024-02-21T00:49:09;13.87;;;7.37;;
11807;SDS011;5961;42.640;23.380;2024-02-21T00:51:35;12.23;;;6.97;;
11807;SDS011;5961;42.640;23.380;2024-02-21T00:54:02;14.27;;;8.30;;
11807;SDS011;5961;42.640;23.380;2024-02-21T00:56:30;12.70;;;7.07;;
11807;SDS011;5961;42.640;23.380;2024-02-21T00:58:57;13.27;;;7.23;;
11807;SDS011;5961;42.640;23.380;2024-02-21T01:01:24;12.27;;;7.67;;
11807;SDS011;5961;42.640;23.380;2024-02-21T01:03:51;12.20;;;7.30;;
11807;SDS011;5961;42.640;23.380;2024-02-21T01:06:18;14.53;;;7.57;;
11807;SDS011;5961;42.640;23.380;2024-02-21T01:08:45;13.50;;;7.33;;
11807;SDS011;5961;42.640;23.380;2024-02-21T01:11:12;13.47;;;8.03;;
11807;SDS011;5961;42.640;23.380;2024-02-21T01:13:40;11.07;;;6.80;;
11807;SDS011;5961;42.640;23.380;2024-02-21T01:16:07;13.07;;;7.77;;
11807;SDS011;5961;42.640;23.380;2024-02-21T01:18:34;13.70;;;7.37;;
11807;SDS011;5961;42.640;23.380;2024-02-21T01:21:01;12.60;;;7.50;;
11807;SDS011;5961;42.640;23.380;2024-02-21T01:23:27;11.30;;;7.00;;
11807;SDS011;5961;42.640;23.380;2024-02-21T01:25:54;11.93;;;7.07;;
11807;SDS011;5961;42.640;23.380;2024-02-21T01:28:21;12.63;;;7.23;;
11807;SDS011;5961;42.640;23.380;2024-02-21T01:30:49;14.27;;;7.87;;
11807;SDS011;5961;42.640;23.380;2024-02-21T01:33:16;13.07;;;7.80;;
11807;SDS011;5961;42.640;23.380;2024-02-21T01:35:44;13.63;;;8.03;;
11807;SDS011;5961;42.640;23.380;2024-02-21T01:38:12;12.90;;;7.33;;
11807;SDS011;5961;42.640;23.380;2024-02-21T01:40:39;12.97;;;7.80;;
11807;SDS011;5961;42.640;23.380;2024-02-21T01:43:14;13.97;;;8.07;;
11807;SDS011;5961;42.640;23.380;2024-02-21T01:45:42;14.67;;;8.23;;
11807;SDS011;5961;42.640;23.380;2024-02-21T01:48:10;13.67;;;8.33;;
11807;SDS011;5961;42.640;23.380;2024-02-21T01:50:36;14.73;;;8.33;;
11807;SDS011;5961;42.640;23.380;2024-02-21T01:53:03;14.83;;;8.07;;
11807;SDS011;5961;42.640;23.380;2024-02-21T01:55:30;14.77;;;8.57;;
11807;SDS011;5961;42.640;23.380;2024-02-21T01:57:57;14.57;;;8.57;;
11807;SDS011;5961;42.640;23.380;2024-02-21T02:00:24;13.60;;;8.07;;
11807;SDS011;5961;42.640;23.380;2024-02-21T02:02:50;14.60;;;8.53;;
11807;SDS011;5961;42.640;23.380;2024-02-21T02:05:19;15.30;;;9.07;;
11807;SDS011;5961;42.640;23.380;2024-02-21T02:07:46;14.63;;;8.63;;
11807;SDS011;5961;42.640;23.380;2024-02-21T02:10:13;17.87;;;9.63;;
11807;SDS011;5961;42.640;23.380;2024-02-21T02:12:40;16.37;;;9.60;;
11807;SDS011;5961;42.640;23.380;2024-02-21T02:15:07;16.80;;;9.47;;
11807;SDS011;5961;42.640;23.380;2024-02-21T02:17:34;18.33;;;9.60;;
11807;SDS011;5961;42.640;23.380;2024-02-21T02:20:00;18.33;;;9.30;;
11807;SDS011;5961;42.640;23.380;2024-02-21T02:22:29;18.70;;;10.50;;
11807;SDS011;5961;42.640;23.380;2024-02-21T02:24:59;22.07;;;11.57;;
11807;SDS011;5961;42.640;23.380;2024-02-21T02:27:26;20.83;;;11.60;;
11807;SDS011;5961;42.640;23.380;2024-02-21T02:29:53;25.60;;;11.93;;
11807;SDS011;5961;42.640;23.380;2024-02-21T02:32:19;25.00;;;13.07;;
11807;SDS011;5961;42.640;23.380;2024-02-21T02:34:46;24.23;;;12.43;;
11807;SDS011;5961;42.640;23.380;2024-02-21T02:37:12;23.90;;;12.57;;
11807;SDS011;5961;42.640;23.380;2024-02-21T02:39:39;23.60;;;12.30;;
11807;SDS011;5961;42.640;23.380;2024-02-21T02:42:07;24.73;;;13.07;;
11807;SDS011;5961;42.640;23.380;2024-02-21T02:44:34;24.17;;;13.80;;
11807;SDS011;5961;42.640;23.380;2024-02-21T02:47:01;25.53;;;14.03;;
11807;SDS011;5961;42.640;23.380;2024-02-21T02:49:28;27.53;;;14.27;;
11807;SDS011;5961;42.640;23.380;2024-02-21T02:51:55;25.43;;;12.73;;
11807;SDS011;5961;42.640;23.380;2024-02-21T02:54:21;27.63;;;13.40;;
11807;SDS011;5961;42.640;23.380;2024-02-21T02:56:49;24.13;;;13.43;;
11807;SDS011;5961;42.640;23.380;2024-02-21T02:59:18;24.27;;;13.03;;
11807;SDS011;5961;42.640;23.380;2024-02-21T03:01:44;23.77;;;13.30;;
11807;SDS011;5961;42.640;23.380;2024-02-21T03:04:11;27.57;;;13.93;;
11807;SDS011;5961;42.640;23.380;2024-02-21T03:06:38;27.53;;;13.67;;
11807;SDS011;5961;42.640;23.380;2024-02-21T03:09:04;24.23;;;12.27;;
11807;SDS011;5961;42.640;23.380;2024-02-21T03:11:33;25.00;;;13.87;;
11807;SDS011;5961;42.640;23.380;2024-02-21T03:14:00;27.50;;;13.40;;
11807;SDS011;5961;42.640;23.380;2024-02-21T03:16:28;24.60;;;13.77;;
11807;SDS011;5961;42.640;23.380;2024-02-21T03:18:55;25.00;;;13.33;;
11807;SDS011;5961;42.640;23.380;2024-02-21T03:21:21;25.80;;;13.23;;
11807;SDS011;5961;42.640;23.380;2024-02-21T03:23:48;28.30;;;13.77;;
11807;SDS011;5961;42.640;23.380;2024-02-21T03:26:15;23.57;;;12.97;;
11807;SDS011;5961;42.640;23.380;2024-02-21T03:28:42;24.90;;;13.47;;
11807;SDS011;5961;42.640;23.380;2024-02-21T03:31:10;24.93;;;13.47;;
11807;SDS011;5961;42.640;23.380;2024-02-21T03:33:38;23.60;;;12.90;;
11807;SDS011;5961;42.640;23.380;2024-02-21T03:36:05;27.03;;;13.47;;
11807;SDS011;5961;42.640;23.380;2024-02-21T03:38:32;25.33;;;13.83;;
11807;SDS011;5961;42.640;23.380;2024-02-21T03:40:59;22.83;;;13.67;;
11807;SDS011;5961;42.640;23.380;2024-02-21T03:43:26;28.00;;;13.90;;
11807;SDS011;5961;42.640;23.380;2024-02-21T03:45:52;23.80;;;13.30;;
11807;SDS011;5961;42.640;23.380;2024-02-21T03:48:19;25.07;;;13.73;;
11807;SDS011;5961;42.640;23.380;2024-02-21T03:50:47;26.27;;;13.87;;
11807;SDS011;5961;42.640;23.380;2024-02-21T03:53:13;25.20;;;13.70;;
11807;SDS011;5961;42.640;23.380;2024-02-21T03:55:40;24.53;;;13.73;;
11807;SDS011;5961;42.640;23.380;2024-02-21T03:58:07;25.90;;;13.77;;
11807;SDS011;5961;42.640;23.380;2024-02-21T04:00:33;26.47;;;13.97;;
11807;SDS011;5961;42.640;23.380;2024-02-21T04:03:00;27.43;;;13.40;;
11807;SDS011;5961;42.640;23.380;2024-02-21T04:05:27;25.27;;;13.73;;
11807;SDS011;5961;42.640;23.380;2024-02-21T04:07:55;26.67;;;13.63;;
11807;SDS011;5961;42.640;23.380;2024-02-21T04:10:22;26.23;;;13.53;;
11807;SDS011;5961;42.640;23.380;2024-02-21T04:12:49;26.30;;;14.17;;
11807;SDS011;5961;42.640;23.380;2024-02-21T04:15:16;28.07;;;15.03;;
11807;SDS011;5961;42.640;23.380;2024-02-21T04:17:43;29.87;;;14.70;;
11807;SDS011;5961;42.640;23.380;2024-02-21T04:20:13;28.77;;;14.53;;
11807;SDS011;5961;42.640;23.380;2024-02-21T04:22:42;26.13;;;13.73;;
11807;SDS011;5961;42.640;23.380;2024-02-21T04:25:10;28.30;;;14.27;;
11807;SDS011;5961;42.640;23.380;2024-02-21T04:27:37;27.23;;;13.13;;
11807;SDS011;5961;42.640;23.380;2024-02-21T04:30:06;25.93;;;14.63;;
11807;SDS011;5961;42.640;23.380;2024-02-21T04:32:34;26.80;;;14.80;;
11807;SDS011;5961;42.640;23.380;2024-02-21T04:35:01;27.90;;;15.00;;
11807;SDS011;5961;42.640;23.380;2024-02-21T04:37:28;28.27;;;15.40;;
11807;SDS011;5961;42.640;23.380;2024-02-21T04:39:54;30.50;;;15.57;;
11807;SDS011;5961;42.640;23.380;2024-02-21T04:42:22;30.10;;;15.77;;
11807;SDS011;5961;42.640;23.380;2024-02-21T04:44:49;30.63;;;16.00;;
11807;SDS011;5961;42.640;23.380;2024-02-21T04:47:16;31.67;;;15.63;;
11807;SDS011;5961;42.640;23.380;2024-02-21T04:49:42;33.33;;;15.57;;
11807;SDS011;5961;42.640;23.380;2024-02-21T04:52:09;32.03;;;16.13;;
11807;SDS011;5961;42.640;23.380;2024-02-21T04:54:36;34.47;;;16.67;;
11807;SDS011;5961;42.640;23.380;2024-02-21T04:57:02;30.23;;;15.50;;
11807;SDS011;5961;42.640;23.380;2024-02-21T04:59:31;29.10;;;14.90;;
11807;SDS011;5961;42.640;23.380;2024-02-21T05:02:00;32.00;;;15.50;;
11807;SDS011;5961;42.640;23.380;2024-02-21T05:04:26;31.13;;;14.90;;
11807;SDS011;5961;42.640;23.380;2024-02-21T05:06:53;27.67;;;15.70;;
11807;SDS011;5961;42.640;23.380;2024-02-21T05:09:20;32.47;;;16.13;;
11807;SDS011;5961;42.640;23.380;2024-02-21T05:11:47;32.20;;;16.47;;
11807;SDS011;5961;42.640;23.380;2024-02-21T05:14:14;32.17;;;15.80;;
11807;SDS011;5961;42.640;23.380;2024-02-21T05:16:42;30.13;;;15.93;;
11807;SDS011;5961;42.640;23.380;2024-02-21T05:19:08;29.03;;;15.10;;
11807;SDS011;5961;42.640;23.380;2024-02-21T05:21:35;31.97;;;16.23;;
11807;SDS011;5961;42.640;23.380;2024-02-21T05:24:02;30.00;;;15.33;;
11807;SDS011;5961;42.640;23.380;2024-02-21T05:26:28;34.53;;;15.97;;
11807;SDS011;5961;42.640;23.380;2024-02-21T05:28:55;32.53;;;16.20;;
11807;SDS011;5961;42.640;23.380;2024-02-21T05:31:22;29.53;;;15.80;;
11807;SDS011;5961;42.640;23.380;2024-02-21T05:33:50;32.40;;;16.63;;
11807;SDS011;5961;42.640;23.380;2024-02-21T05:36:17;31.87;;;17.17;;
11807;SDS011;5961;42.640;23.380;2024-02-21T05:38:43;32.53;;;17.30;;
11807;SDS011;5961;42.640;23.380;2024-02-21T05:41:10;30.40;;;16.27;;
11807;SDS011;5961;42.640;23.380;2024-02-21T05:43:37;34.43;;;18.33;;
11807;SDS011;5961;42.640;23.380;2024-02-21T05:46:03;36.77;;;17.17;;
11807;SDS011;5961;42.640;23.380;2024-02-21T05:48:30;34.63;;;17.13;;
11807;SDS011;5961;42.640;23.380;2024-02-21T05:50:58;31.10;;;16.80;;
11807;SDS011;5961;42.640;23.380;2024-02-21T05:53:27;32.50;;;17.00;;
11807;SDS011;5961;42.640;23.380;2024-02-21T05:55:54;34.00;;;17.30;;
11807;SDS011;5961;42.640;23.380;2024-02-21T05:58:21;31.40;;;17.17;;
11807;SDS011;5961;42.640;23.380;2024-02-21T06:00:48;32.87;;;16.80;;
11807;SDS011;5961;42.640;23.380;2024-02-21T06:03:15;36.37;;;17.60;;
11807;SDS011;5961;42.640;23.380;2024-02-21T06:05:41;32.93;;;17.37;;
11807;SDS011;5961;42.640;23.380;2024-02-21T06:08:09;41.80;;;19.23;;
11807;SDS011;5961;42.640;23.380;2024-02-21T06:10:36;33.20;;;17.30;;
11807;SDS011;5961;42.640;23.380;2024-02-21T06:13:03;30.33;;;17.00;;
11807;SDS011;5961;42.640;23.380;2024-02-21T06:15:30;36.10;;;18.60;;
11807;SDS011;5961;42.640;23.380;2024-02-21T06:17:56;36.17;;;19.07;;
11807;SDS011;5961;42.640;23.380;2024-02-21T06:20:23;31.80;;;17.27;;
11807;SDS011;5961;42.640;23.380;2024-02-21T06:22:50;34.97;;;18.37;;
11807;SDS011;5961;42.640;23.380;2024-02-21T06:25:18;32.97;;;18.43;;
11807;SDS011;5961;42.640;23.380;2024-02-21T06:27:44;37.87;;;18.47;;
11807;SDS011;5961;42.640;23.380;2024-02-21T06:30:11;33.83;;;17.97;;
11807;SDS011;5961;42.640;23.380;2024-02-21T06:32:38;42.17;;;19.57;;
11807;SDS011;5961;42.640;23.380;2024-02-21T06:35:05;38.67;;;19.00;;
11807;SDS011;5961;42.640;23.380;2024-02-21T06:37:32;42.33;;;19.47;;
11807;SDS011;5961;42.640;23.380;2024-02-21T06:39:59;54.07;;;23.23;;
11807;SDS011;5961;42.640;23.380;2024-02-21T06:42:27;35.87;;;18.97;;
11807;SDS011;5961;42.640;23.380;2024-02-21T06:44:54;41.70;;;20.57;;
11807;SDS011;5961;42.640;23.380;2024-02-21T06:47:21;43.40;;;19.90;;
11807;SDS011;5961;42.640;23.380;2024-02-21T06:49:48;47.63;;;23.90;;
11807;SDS011;5961;42.640;23.380;2024-02-21T06:52:17;38.47;;;20.20;;
11807;SDS011;5961;42.640;23.380;2024-02-21T06:54:45;46.80;;;21.53;;
11807;SDS011;5961;42.640;23.380;2024-02-21T06:57:12;40.40;;;21.10;;
11807;SDS011;5961;42.640;23.380;2024-02-21T06:59:40;39.80;;;20.33;;
11807;SDS011;5961;42.640;23.380;2024-02-21T07:02:10;46.47;;;22.07;;
11807;SDS011;5961;42.640;23.380;2024-02-21T07:04:37;40.10;;;20.03;;
11807;SDS011;5961;42.640;23.380;2024-02-21T07:07:04;42.10;;;21.37;;
11807;SDS011;5961;42.640;23.380;2024-02-21T07:09:30;48.47;;;22.50;;
11807;SDS011;5961;42.640;23.380;2024-02-21T07:11:57;54.77;;;26.03;;
11807;SDS011;5961;42.640;23.380;2024-02-21T07:14:24;45.70;;;21.53;;
11807;SDS011;5961;42.640;23.380;2024-02-21T07:16:53;43.67;;;21.93;;
11807;SDS011;5961;42.640;23.380;2024-02-21T07:19:19;44.53;;;20.97;;
11807;SDS011;5961;42.640;23.380;2024-02-21T07:21:46;43.67;;;22.43;;
11807;SDS011;5961;42.640;23.380;2024-02-21T07:24:13;48.87;;;23.37;;
11807;SDS011;5961;42.640;23.380;2024-02-21T07:26:40;37.63;;;20.37;;
11807;SDS011;5961;42.640;23.380;2024-02-21T07:29:09;44.43;;;21.60;;
11807;SDS011;5961;42.640;23.380;2024-02-21T07:31:38;44.73;;;21.70;;
11807;SDS011;5961;42.640;23.380;2024-02-21T07:34:08;40.73;;;18.77;;
11807;SDS011;5961;42.640;23.380;2024-02-21T07:36:35;39.83;;;19.50;;
11807;SDS011;5961;42.640;23.380;2024-02-21T07:39:02;38.43;;;18.90;;
11807;SDS011;5961;42.640;23.380;2024-02-21T07:41:29;37.93;;;17.73;;
11807;SDS011;5961;42.640;23.380;2024-02-21T07:43:56;39.87;;;19.40;;
11807;SDS011;5961;42.640;23.380;2024-02-21T07:46:24;39.53;;;19.87;;
11807;SDS011;5961;42.640;23.380;2024-02-21T07:48:50;37.30;;;18.63;;
11807;SDS011;5961;42.640;23.380;2024-02-21T07:51:18;35.03;;;18.03;;
11807;SDS011;5961;42.640;23.380;2024-02-21T07:53:45;35.90;;;18.73;;
11807;SDS011;5961;42.640;23.380;2024-02-21T07:56:12;39.10;;;19.03;;
11807;SDS011;5961;42.640;23.380;2024-02-21T07:58:40;38.07;;;19.87;;
11807;SDS011;5961;42.640;23.380;2024-02-21T08:01:07;42.53;;;19.97;;
11807;SDS011;5961;42.640;23.380;2024-02-21T08:03:33;38.83;;;18.93;;
11807;SDS011;5961;42.640;23.380;2024-02-21T08:06:00;36.97;;;18.13;;
11807;SDS011;5961;42.640;23.380;2024-02-21T08:08:29;37.93;;;17.80;;
11807;SDS011;5961;42.640;23.380;2024-02-21T08:10:55;41.40;;;20.03;;
11807;SDS011;5961;42.640;23.380;2024-02-21T08:13:22;42.10;;;19.60;;
11807;SDS011;5961;42.640;23.380;2024-02-21T08:15:49;44.87;;;19.27;;
11807;SDS011;5961;42.640;23.380;2024-02-21T08:18:15;42.73;;;20.13;;
11807;SDS011;5961;42.640;23.380;2024-02-21T08:20:42;42.30;;;19.40;;
11807;SDS011;5961;42.640;23.380;2024-02-21T08:23:09;36.00;;;18.47;;
11807;SDS011;5961;42.640;23.380;2024-02-21T08:25:37;38.90;;;18.83;;
11807;SDS011;5961;42.640;23.380;2024-02-21T08:28:04;38.87;;;18.60;;
11807;SDS011;5961;42.640;23.380;2024-02-21T08:30:31;32.83;;;17.53;;
11807;SDS011;5961;42.640;23.380;2024-02-21T08:32:58;38.77;;;19.97;;
11807;SDS011;5961;42.640;23.380;2024-02-21T08:35:25;39.03;;;19.17;;
11807;SDS011;5961;42.640;23.380;2024-02-21T08:37:52;34.63;;;18.13;;
11807;SDS011;5961;42.640;23.380;2024-02-21T08:40:18;32.80;;;17.13;;
11807;SDS011;5961;42.640;23.380;2024-02-21T08:42:47;30.83;;;16.37;;
11807;SDS011;5961;42.640;23.380;2024-02-21T08:45:14;33.63;;;17.70;;
11807;SDS011;5961;42.640;23.380;2024-02-21T08:47:41;34.13;;;18.43;;
11807;SDS011;5961;42.640;23.380;2024-02-21T08:50:08;34.90;;;17.97;;
11807;SDS011;5961;42.640;23.380;2024-02-21T08:52:36;31.37;;;17.80;;
11807;SDS011;5961;42.640;23.380;2024-02-21T08:55:02;36.97;;;17.03;;
11807;SDS011;5961;42.640;23.380;2024-02-21T08:57:29;28.13;;;15.07;;
11807;SDS011;5961;42.640;23.380;2024-02-21T09:00:03;31.60;;;16.50;;
11807;SDS011;5961;42.640;23.380;2024-02-21T09:02:34;31.10;;;16.03;;
11807;SDS011;5961;42.640;23.380;2024-02-21T09:05:02;30.27;;;15.27;;
11807;SDS011;5961;42.640;23.380;2024-02-21T09:07:30;28.67;;;15.43;;
11807;SDS011;5961;42.640;23.380;2024-02-21T09:09:56;31.03;;;14.87;;
11807;SDS011;5961;42.640;23.380;2024-02-21T09:12:23;30.90;;;16.43;;
11807;SDS011;5961;42.640;23.380;2024-02-21T09:14:50;26.13;;;14.60;;
11807;SDS011;5961;42.640;23.380;2024-02-21T09:17:18;27.00;;;14.73;;
11807;SDS011;5961;42.640;23.380;2024-02-21T09:19:45;30.40;;;14.70;;
11807;SDS011;5961;42.640;23.380;2024-02-21T09:22:12;27.13;;;13.87;;
11807;SDS011;5961;42.640;23.380;2024-02-21T09:24:39;26.87;;;14.67;;
11807;SDS011;5961;42.640;23.380;2024-02-21T09:27:05;27.77;;;15.20;;
11807;SDS011;5961;42.640;23.380;2024-02-21T09:29:32;26.70;;;14.17;;
11807;SDS011;5961;42.640;23.380;2024-02-21T09:31:59;24.23;;;13.50;;
11807;SDS011;5961;42.640;23.380;2024-02-21T09:34:27;28.70;;;14.77;;
11807;SDS011;5961;42.640;23.380;2024-02-21T09:36:53;27.13;;;15.90;;
11807;SDS011;5961;42.640;23.380;2024-02-21T09:39:20;29.80;;;15.93;;
11807;SDS011;5961;42.640;23.380;2024-02-21T09:41:48;30.50;;;16.43;;
11807;SDS011;5961;42.640;23.380;2024-02-21T09:44:18;30.77;;;16.87;;
11807;SDS011;5961;42.640;23.380;2024-02-21T09:46:49;28.23;;;15.13;;
11807;SDS011;5961;42.640;23.380;2024-02-21T09:49:26;33.70;;;16.30;;
11807;SDS011;5961;42.640;23.380;2024-02-21T09:52:00;28.10;;;15.10;;
11807;SDS011;5961;42.640;23.380;2024-02-21T09:54:29;26.83;;;14.10;;
11807;SDS011;5961;42.640;23.380;2024-02-21T09:56:56;30.03;;;15.90;;
11807;SDS011;5961;42.640;23.380;2024-02-21T09:59:23;33.10;;;17.37;;
11807;SDS011;5961;42.640;23.380;2024-02-21T10:01:51;30.70;;;17.37;;
11807;SDS011;5961;42.640;23.380;2024-02-21T10:04:17;26.83;;;15.53;;
11807;SDS011;5961;42.640;23.380;2024-02-21T10:06:46;30.73;;;16.63;;
11807;SDS011;5961;42.640;23.380;2024-02-21T10:09:19;26.97;;;13.97;;
11807;SDS011;5961;42.640;23.380;2024-02-21T10:11:48;24.50;;;13.63;;
11807;SDS011;5961;42.640;23.380;2024-02-21T10:14:14;22.23;;;12.50;;
11807;SDS011;5961;42.640;23.380;2024-02-21T10:16:42;24.37;;;13.40;;
11807;SDS011;5961;42.640;23.380;2024-02-21T10:19:15;24.77;;;13.37;;
11807;SDS011;5961;42.640;23.380;2024-02-21T10:21:42;24.27;;;13.57;;
11807;SDS011;5961;42.640;23.380;2024-02-21T10:24:11;24.33;;;12.53;;
11807;SDS011;5961;42.640;23.380;2024-02-21T10:26:38;22.37;;;13.00;;
11807;SDS011;5961;42.640;23.380;2024-02-21T10:29:05;23.63;;;13.67;;
11807;SDS011;5961;42.640;23.380;2024-02-21T10:31:32;22.57;;;13.47;;
11807;SDS011;5961;42.640;23.380;2024-02-21T10:33:59;26.87;;;13.53;;
11807;SDS011;5961;42.640;23.380;2024-02-21T10:36:28;24.10;;;13.97;;
11807;SDS011;5961;42.640;23.380;2024-02-21T10:38:55;24.67;;;13.77;;
11807;SDS011;5961;42.640;23.380;2024-02-21T10:41:23;23.43;;;13.83;;
11807;SDS011;5961;42.640;23.380;2024-02-21T10:43:52;26.10;;;13.67;;
11807;SDS011;5961;42.640;23.380;2024-02-21T10:46:20;23.10;;;13.87;;
11807;SDS011;5961;42.640;23.380;2024-02-21T10:48:48;24.60;;;11.70;;
11807;SDS011;5961;42.640;23.380;2024-02-21T10:51:28;22.67;;;11.83;;
11807;SDS011;5961;42.640;23.380;2024-02-21T10:54:02;19.57;;;11.53;;
11807;SDS011;5961;42.640;23.380;2024-02-21T10:56:41;20.83;;;11.80;;
11807;SDS011;5961;42.640;23.380;2024-02-21T10:59:08;22.43;;;11.93;;
11807;SDS011;5961;42.640;23.380;2024-02-21T11:01:34;22.77;;;12.07;;
11807;SDS011;5961;42.640;23.380;2024-02-21T11:04:02;20.93;;;12.20;;
11807;SDS011;5961;42.640;23.380;2024-02-21T11:06:32;22.57;;;12.47;;
11807;SDS011;5961;42.640;23.380;2024-02-21T11:09:01;16.73;;;10.70;;
11807;SDS011;5961;42.640;23.380;2024-02-21T11:11:29;18.00;;;10.60;;
11807;SDS011;5961;42.640;23.380;2024-02-21T11:14:05;21.70;;;11.00;;
11807;SDS011;5961;42.640;23.380;2024-02-21T11:16:35;22.60;;;10.97;;
11807;SDS011;5961;42.640;23.380;2024-02-21T11:19:06;18.67;;;10.13;;
11807;SDS011;5961;42.640;23.380;2024-02-21T11:21:33;17.90;;;11.10;;
11807;SDS011;5961;42.640;23.380;2024-02-21T11:24:01;17.40;;;9.77;;
11807;SDS011;5961;42.640;23.380;2024-02-21T11:26:28;20.70;;;11.03;;
11807;SDS011;5961;42.640;23.380;2024-02-21T11:28:56;15.67;;;9.10;;
11807;SDS011;5961;42.640;23.380;2024-02-21T11:31:26;14.23;;;9.23;;
11807;SDS011;5961;42.640;23.380;2024-02-21T11:33:53;16.00;;;9.57;;
11807;SDS011;5961;42.640;23.380;2024-02-21T11:36:26;14.90;;;8.80;;
11807;SDS011;5961;42.640;23.380;2024-02-21T11:38:53;15.67;;;8.40;;
11807;SDS011;5961;42.640;23.380;2024-02-21T11:41:20;11.47;;;7.17;;
11807;SDS011;5961;42.640;23.380;2024-02-21T11:43:48;11.27;;;7.33;;
11807;SDS011;5961;42.640;23.380;2024-02-21T11:46:16;11.57;;;7.47;;
11807;SDS011;5961;42.640;23.380;2024-02-21T11:48:45;10.57;;;6.70;;
11807;SDS011;5961;42.640;23.380;2024-02-21T11:51:20;17.33;;;8.80;;
11807;SDS011;5961;42.640;23.380;2024-02-21T11:53:48;13.27;;;7.30;;
11807;SDS011;5961;42.640;23.380;2024-02-21T11:56:15;14.90;;;7.87;;
11807;SDS011;5961;42.640;23.380;2024-02-21T11:58:41;13.73;;;7.50;;
11807;SDS011;5961;42.640;23.380;2024-02-21T12:01:09;15.07;;;7.20;;
11807;SDS011;5961;42.640;23.380;2024-02-21T12:03:35;13.63;;;8.07;;
11807;SDS011;5961;42.640;23.380;2024-02-21T12:06:04;11.80;;;7.20;;
11807;SDS011;5961;42.640;23.380;2024-02-21T12:08:40;12.43;;;7.00;;
11807;SDS011;5961;42.640;23.380;2024-02-21T12:11:15;12.37;;;6.93;;
11807;SDS011;5961;42.640;23.380;2024-02-21T12:13:43;13.03;;;6.33;;
11807;SDS011;5961;42.640;23.380;2024-02-21T12:16:10;11.67;;;6.93;;
11807;SDS011;5961;42.640;23.380;2024-02-21T12:18:39;11.67;;;7.17;;
11807;SDS011;5961;42.640;23.380;2024-02-21T12:21:07;10.70;;;7.07;;
11807;SDS011;5961;42.640;23.380;2024-02-21T12:23:34;13.37;;;7.13;;
11807;SDS011;5961;42.640;23.380;2024-02-21T12:26:01;11.20;;;6.80;;
11807;SDS011;5961;42.640;23.380;2024-02-21T12:28:30;14.03;;;7.23;;
11807;SDS011;5961;42.640;23.380;2024-02-21T12:30:56;12.20;;;7.50;;
11807;SDS011;5961;42.640;23.380;2024-02-21T12:33:23;12.43;;;7.17;;
11807;SDS011;5961;42.640;23.380;2024-02-21T12:35:50;11.13;;;7.17;;
11807;SDS011;5961;42.640;23.380;2024-02-21T12:38:18;15.90;;;8.50;;
11807;SDS011;5961;42.640;23.380;2024-02-21T12:40:45;15.80;;;8.10;;
11807;SDS011;5961;42.640;23.380;2024-02-21T12:43:12;15.00;;;8.77;;
11807;SDS011;5961;42.640;23.380;2024-02-21T12:45:39;13.03;;;8.13;;
11807;SDS011;5961;42.640;23.380;2024-02-21T12:48:06;13.00;;;7.57;;
11807;SDS011;5961;42.640;23.380;2024-02-21T12:50:33;12.27;;;7.33;;
11807;SDS011;5961;42.640;23.380;2024-02-21T12:53:00;12.10;;;7.57;;
11807;SDS011;5961;42.640;23.380;2024-02-21T12:55:28;14.07;;;7.87;;
11807;SDS011;5961;42.640;23.380;2024-02-21T12:57:55;12.03;;;6.63;;
11807;SDS011;5961;42.640;23.380;2024-02-21T13:00:22;13.47;;;7.47;;
11807;SDS011;5961;42.640;23.380;2024-02-21T13:02:52;13.47;;;7.27;;
11807;SDS011;5961;42.640;23.380;2024-02-21T13:05:19;16.00;;;8.17;;
11807;SDS011;5961;42.640;23.380;2024-02-21T13:07:46;19.27;;;8.23;;
11807;SDS011;5961;42.640;23.380;2024-02-21T13:10:13;11.23;;;6.90;;
11807;SDS011;5961;42.640;23.380;2024-02-21T13:12:41;11.50;;;6.80;;
11807;SDS011;5961;42.640;23.380;2024-02-21T13:15:08;12.57;;;7.20;;
11807;SDS011;5961;42.640;23.380;2024-02-21T13:17:37;12.77;;;7.47;;
11807;SDS011;5961;42.640;23.380;2024-02-21T13:20:05;18.23;;;9.73;;
11807;SDS011;5961;42.640;23.380;2024-02-21T13:22:33;17.77;;;8.90;;
11807;SDS011;5961;42.640;23.380;2024-02-21T13:25:00;17.83;;;10.00;;
11807;SDS011;5961;42.640;23.380;2024-02-21T13:27:27;15.53;;;9.30;;
11807;SDS011;5961;42.640;23.380;2024-02-21T13:29:55;18.90;;;9.90;;
11807;SDS011;5961;42.640;23.380;2024-02-21T13:32:22;20.80;;;10.93;;
11807;SDS011;5961;42.640;23.380;2024-02-21T13:34:48;20.43;;;11.33;;
11807;SDS011;5961;42.640;23.380;2024-02-21T13:37:17;17.63;;;10.03;;
11807;SDS011;5961;42.640;23.380;2024-02-21T13:39:44;19.17;;;10.63;;
11807;SDS011;5961;42.640;23.380;2024-02-21T13:42:12;20.67;;;11.30;;
11807;SDS011;5961;42.640;23.380;2024-02-21T13:44:39;20.20;;;11.17;;
11807;SDS011;5961;42.640;23.380;2024-02-21T13:47:07;21.33;;;11.30;;
11807;SDS011;5961;42.640;23.380;2024-02-21T13:49:34;17.17;;;10.43;;
11807;SDS011;5961;42.640;23.380;2024-02-21T13:52:01;17.97;;;9.80;;
11807;SDS011;5961;42.640;23.380;2024-02-21T13:54:28;17.47;;;9.63;;
11807;SDS011;5961;42.640;23.380;2024-02-21T13:56:55;16.67;;;9.20;;
11807;SDS011;5961;42.640;23.380;2024-02-21T13:59:21;16.43;;;9.17;;
11807;SDS011;5961;42.640;23.380;2024-02-21T14:01:48;15.43;;;8.87;;
11807;SDS011;5961;42.640;23.380;2024-02-21T14:04:16;20.87;;;9.23;;
11807;SDS011;5961;42.640;23.380;2024-02-21T14:06:43;15.70;;;9.47;;
11807;SDS011;5961;42.640;23.380;2024-02-21T14:09:09;15.27;;;9.23;;
11807;SDS011;5961;42.640;23.380;2024-02-21T14:11:36;18.67;;;10.17;;
11807;SDS011;5961;42.640;23.380;2024-02-21T14:14:05;14.03;;;9.20;;
11807;SDS011;5961;42.640;23.380;2024-02-21T14:16:31;12.07;;;7.73;;
11807;SDS011;5961;42.640;23.380;2024-02-21T14:18:58;17.33;;;9.63;;
11807;SDS011;5961;42.640;23.380;2024-02-21T14:21:26;17.63;;;9.53;;
11807;SDS011;5961;42.640;23.380;2024-02-21T14:23:53;18.63;;;9.80;;
11807;SDS011;5961;42.640;23.380;2024-02-21T14:26:21;17.67;;;9.60;;